createdAt,value
2018-12-05T00:02:33.094Z,10.75
2018-12-05T00:06:45.896Z,9.77
2018-12-05T00:11:00.601Z,10.07
2018-12-05T00:15:14.980Z,9.85
2018-12-05T00:19:30.087Z,10.20
2018-12-05T00:23:41.706Z,12.13
2018-12-05T00:27:51.361Z,8.20
2018-12-05T00:32:06.523Z,8.90
2018-12-05T00:36:20.460Z,8.20
2018-12-05T00:40:33.926Z,9.50
2018-12-05T00:44:45.780Z,9.23
2018-12-05T00:48:59.280Z,9.97
2018-12-05T00:53:15.512Z,9.40
2018-12-05T00:57:24.975Z,11.90
2018-12-05T01:01:39.208Z,12.87
2018-12-05T01:05:52.843Z,12.60
2018-12-05T01:10:04.398Z,9.30
2018-12-05T01:14:16.358Z,11.33
2018-12-05T01:18:23.803Z,10.48
2018-12-05T01:22:39.473Z,10.77
2018-12-05T01:26:49.479Z,9.43
2018-12-05T01:30:56.529Z,11.60
2018-12-05T01:35:13.871Z,9.57
2018-12-05T01:39:24.177Z,9.37
2018-12-05T01:43:53.930Z,10.03
2018-12-05T01:48:01.807Z,9.07
2018-12-05T01:52:08.837Z,8.00
2018-12-05T01:56:19.268Z,8.83
2018-12-05T02:00:30.146Z,11.83
2018-12-05T02:04:45.647Z,14.17
2018-12-05T02:09:07.077Z,14.27
2018-12-05T02:13:20.879Z,12.30
2018-12-05T02:17:32.656Z,11.68
2018-12-05T02:21:39.557Z,10.80
2018-12-05T02:25:55.847Z,10.43
2018-12-05T02:30:07.591Z,12.47
2018-12-05T02:34:18.646Z,13.55
2018-12-05T02:38:32.086Z,13.18
2018-12-05T02:42:42.448Z,11.53
2018-12-05T02:47:01.628Z,13.10
2018-12-05T02:51:14.315Z,12.10
2018-12-05T02:55:29.757Z,10.37
2018-12-05T02:59:39.996Z,12.17
2018-12-05T03:04:01.773Z,10.55
2018-12-05T03:08:10.526Z,12.77
2018-12-05T03:12:27.085Z,10.85
2018-12-05T03:16:36.646Z,14.17
2018-12-05T03:20:46.638Z,10.73
2018-12-05T03:24:55.745Z,13.50
2018-12-05T03:29:11.732Z,14.33
2018-12-05T03:33:25.455Z,14.85
2018-12-05T03:37:43.786Z,14.07
2018-12-05T03:42:01.987Z,14.50
2018-12-05T03:46:16.764Z,14.57
2018-12-05T03:50:32.579Z,15.53
2018-12-05T03:54:46.193Z,12.47
2018-12-05T03:58:59.627Z,12.87
2018-12-05T04:03:16.559Z,12.33
2018-12-05T04:07:29.198Z,13.38
2018-12-05T04:11:46.388Z,16.07
2018-12-05T04:15:57.611Z,15.13
2018-12-05T04:20:10.251Z,15.83
2018-12-05T04:24:19.031Z,13.90
2018-12-05T04:28:32.818Z,14.67
2018-12-05T04:32:50.769Z,13.57
2018-12-05T04:37:03.088Z,14.13
2018-12-05T04:41:12.035Z,15.67
2018-12-05T04:45:21.960Z,13.40
2018-12-05T04:49:34.744Z,16.13
2018-12-05T04:53:46.666Z,14.10
2018-12-05T04:57:55.710Z,15.13
2018-12-05T05:02:09.192Z,14.40
2018-12-05T05:06:17.924Z,13.80
2018-12-05T05:10:44.038Z,13.80
2018-12-05T05:14:59.526Z,12.53
2018-12-05T05:19:18.606Z,13.73
2018-12-05T05:23:33.251Z,14.37
2018-12-05T05:27:49.605Z,13.93
2018-12-05T05:32:03.302Z,16.10
2018-12-05T05:36:12.463Z,15.93
2018-12-05T05:40:25.171Z,16.77
2018-12-05T05:44:32.105Z,17.57
2018-12-05T05:48:45.771Z,13.80
2018-12-05T05:52:55.700Z,12.63
2018-12-05T05:57:11.144Z,14.00
2018-12-05T06:01:19.750Z,12.43
2018-12-05T06:05:34.507Z,12.70
2018-12-05T06:09:43.839Z,14.40
2018-12-05T06:13:55.853Z,12.37
2018-12-05T06:18:06.646Z,12.67
2018-12-05T06:22:22.033Z,11.47
2018-12-05T06:26:38.094Z,10.73
2018-12-05T06:30:54.213Z,11.83
2018-12-05T06:35:20.521Z,10.00
2018-12-05T06:39:30.731Z,9.07
2018-12-05T06:43:45.091Z,8.83
2018-12-05T06:47:54.235Z,7.97
2018-12-05T06:52:07.684Z,8.33
2018-12-05T06:56:18.643Z,8.10
2018-12-05T07:00:31.247Z,8.53
2018-12-05T07:04:44.613Z,9.43
2018-12-05T07:08:56.331Z,8.83
2018-12-05T07:13:05.490Z,8.53
2018-12-05T07:17:15.331Z,8.17
2018-12-05T07:21:27.877Z,8.10
2018-12-05T07:25:39.529Z,8.63
2018-12-05T07:29:57.565Z,8.33
2018-12-05T07:34:16.132Z,8.47
2018-12-05T07:42:56.830Z,8.17
2018-12-05T07:47:08.614Z,7.90
2018-12-05T07:51:26.034Z,8.27
2018-12-05T07:55:41.127Z,8.20
2018-12-05T07:59:55.522Z,8.17
2018-12-05T08:04:09.048Z,10.00
2018-12-05T08:08:20.628Z,8.00
2018-12-05T08:12:31.824Z,8.33
2018-12-05T08:16:49.839Z,8.53
2018-12-05T08:20:58.313Z,8.20
2018-12-05T08:25:08.693Z,8.57
2018-12-05T08:29:19.395Z,8.33
2018-12-05T08:33:29.195Z,8.57
2018-12-05T08:37:44.846Z,9.00
2018-12-05T08:41:53.349Z,8.27
2018-12-05T08:46:03.333Z,8.33
2018-12-05T08:50:15.987Z,9.97
2018-12-05T08:54:28.816Z,9.33
2018-12-05T08:58:43.939Z,7.77
2018-12-05T09:02:59.155Z,7.97
2018-12-05T09:07:11.786Z,8.70
2018-12-05T09:11:26.164Z,8.40
2018-12-05T09:15:38.833Z,8.00
2018-12-05T09:19:57.671Z,8.40
2018-12-05T09:24:07.693Z,8.43
2018-12-05T09:28:17.191Z,8.20
2018-12-05T09:32:28.970Z,9.60
2018-12-05T09:36:39.791Z,8.53
2018-12-05T09:40:47.098Z,9.23
2018-12-05T09:45:03.234Z,9.03
2018-12-05T09:49:15.058Z,10.00
2018-12-05T09:53:26.899Z,8.15
2018-12-05T09:57:41.629Z,9.60
2018-12-05T10:01:51.700Z,9.50
2018-12-05T10:06:05.192Z,10.47
2018-12-05T10:10:24.304Z,9.50
2018-12-05T10:14:30.899Z,11.03
2018-12-05T10:18:42.852Z,10.07
2018-12-05T10:22:51.416Z,10.30
2018-12-05T10:27:06.964Z,9.97
2018-12-05T10:31:19.577Z,10.40
2018-12-05T10:35:29.835Z,10.80
2018-12-05T10:39:44.840Z,11.00
2018-12-05T10:44:00.529Z,11.57
2018-12-05T10:48:11.009Z,11.68
2018-12-05T10:52:30.893Z,11.93
2018-12-05T10:56:47.046Z,13.17
2018-12-05T11:01:13.091Z,12.73
2018-12-05T11:05:39.180Z,12.63
2018-12-05T11:10:07.369Z,12.33
2018-12-05T11:14:32.297Z,12.65
2018-12-05T11:18:58.631Z,12.97
2018-12-05T11:23:29.513Z,13.23
2018-12-05T11:27:42.087Z,13.20
2018-12-05T11:31:54.582Z,12.73
2018-12-05T11:36:07.241Z,12.80
2018-12-05T11:40:21.691Z,12.77
2018-12-05T11:44:33.700Z,12.80
2018-12-05T11:48:42.044Z,12.43
2018-12-05T11:52:55.661Z,12.87
2018-12-05T11:57:06.437Z,13.17
2018-12-05T12:01:19.095Z,13.05
2018-12-05T12:05:31.623Z,14.17
2018-12-05T12:09:47.974Z,13.70
2018-12-05T12:13:56.888Z,13.60
2018-12-05T12:18:10.472Z,13.47
2018-12-05T12:22:29.321Z,13.03
2018-12-05T12:26:37.846Z,13.83
2018-12-05T12:30:46.526Z,14.23
2018-12-05T12:35:03.317Z,12.27
2018-12-05T12:39:20.873Z,13.43
2018-12-05T12:43:33.039Z,12.23
2018-12-05T12:47:52.046Z,12.63
2018-12-05T12:52:04.715Z,12.50
2018-12-05T12:56:14.683Z,13.93
2018-12-05T13:00:28.956Z,11.30
2018-12-05T13:04:44.370Z,13.35
2018-12-05T13:08:55.942Z,14.50
2018-12-05T13:13:10.733Z,15.10
2018-12-05T13:17:22.389Z,13.87
2018-12-05T13:21:36.731Z,12.30
2018-12-05T13:25:45.987Z,13.33
2018-12-05T13:30:00.252Z,12.83
2018-12-05T13:34:08.585Z,14.25
2018-12-05T13:38:26.056Z,13.93
2018-12-05T13:42:36.951Z,13.50
2018-12-05T13:46:59.170Z,13.03
2018-12-05T13:51:14.535Z,13.72
2018-12-05T13:55:23.944Z,13.93
2018-12-05T13:59:38.387Z,14.10
2018-12-05T14:03:45.735Z,14.40
2018-12-05T14:07:54.449Z,13.67
2018-12-05T14:12:04.078Z,13.87
2018-12-05T14:16:24.742Z,12.47
2018-12-05T14:20:41.642Z,14.20
2018-12-05T14:24:55.108Z,14.07
2018-12-05T14:33:30.717Z,14.47
2018-12-05T14:37:47.594Z,14.27
2018-12-05T14:42:00.342Z,12.90
2018-12-05T14:46:12.662Z,14.23
2018-12-05T14:50:24.350Z,13.33
2018-12-05T14:54:37.926Z,15.33
2018-12-05T14:58:55.037Z,16.17
2018-12-05T15:03:04.367Z,15.40
2018-12-05T15:07:15.076Z,15.43
2018-12-05T15:11:26.749Z,14.70
2018-12-05T15:15:34.236Z,15.33
2018-12-05T15:19:46.885Z,14.97
2018-12-05T15:24:02.209Z,15.93
2018-12-05T15:28:16.969Z,16.97
2018-12-05T15:32:27.883Z,17.10
2018-12-05T15:36:45.382Z,22.33
2018-12-05T15:40:58.023Z,20.30
2018-12-05T15:45:06.405Z,18.00
2018-12-05T15:49:16.287Z,18.05
2018-12-05T15:53:26.159Z,16.93
2018-12-05T15:57:35.181Z,16.83
2018-12-05T16:01:44.526Z,18.67
2018-12-05T16:05:54.404Z,19.93
2018-12-05T16:10:05.103Z,18.90
2018-12-05T16:14:16.842Z,18.80
2018-12-05T16:18:28.454Z,18.40
2018-12-05T16:22:39.243Z,20.60
2018-12-05T16:26:48.190Z,18.82
2018-12-05T16:30:58.949Z,16.73
2018-12-05T16:35:16.165Z,18.03
2018-12-05T16:39:29.381Z,17.12
2018-12-05T16:43:38.377Z,15.03
2018-12-05T16:47:46.605Z,16.93
2018-12-05T16:51:53.193Z,17.90
2018-12-05T16:56:04.121Z,17.70
2018-12-05T17:00:20.069Z,16.57
2018-12-05T17:04:29.070Z,16.67
2018-12-05T17:08:47.951Z,17.60
2018-12-05T17:12:57.954Z,17.20
2018-12-05T17:17:08.005Z,17.27
2018-12-05T17:21:23.278Z,18.50
2018-12-05T17:25:31.970Z,15.13
2018-12-05T17:29:42.705Z,15.77
2018-12-05T17:33:58.122Z,16.00
2018-12-05T17:38:13.502Z,16.70
2018-12-05T17:42:27.559Z,13.20
2018-12-05T17:46:37.617Z,16.37
2018-12-05T17:50:48.318Z,17.83
2018-12-05T17:55:05.797Z,17.60
2018-12-05T17:59:16.711Z,17.20
2018-12-05T18:03:31.948Z,17.77
2018-12-05T18:07:49.034Z,18.37
2018-12-05T18:11:58.218Z,17.50
2018-12-05T18:16:13.540Z,16.30
2018-12-05T18:20:26.156Z,15.50
2018-12-05T18:24:38.693Z,17.07
2018-12-05T18:28:49.491Z,17.47
2018-12-05T18:33:04.329Z,17.73
2018-12-05T18:37:17.734Z,17.30
2018-12-05T18:41:30.604Z,17.77
2018-12-05T18:45:42.469Z,17.13
2018-12-05T18:49:54.134Z,17.67
2018-12-05T18:54:10.322Z,17.07
2018-12-05T18:58:18.949Z,16.27
2018-12-05T19:02:38.161Z,17.42
2018-12-05T19:06:55.335Z,16.07
2018-12-05T19:11:12.462Z,16.80
2018-12-05T19:15:24.135Z,15.65
2018-12-05T19:19:38.628Z,16.17
2018-12-05T19:23:53.199Z,14.53
2018-12-05T19:28:09.422Z,15.93
2018-12-05T19:32:20.391Z,15.17
2018-12-05T19:36:34.030Z,14.00
2018-12-05T19:40:44.967Z,14.13
2018-12-05T19:44:57.347Z,13.73
2018-12-05T19:49:05.998Z,14.37
2018-12-05T19:53:18.121Z,14.37
2018-12-05T19:57:26.129Z,13.48
2018-12-05T20:01:38.852Z,14.10
2018-12-05T20:05:56.029Z,13.33
2018-12-05T20:10:03.527Z,12.97
2018-12-05T20:14:15.654Z,13.53
2018-12-05T20:18:29.353Z,13.08
2018-12-05T20:22:41.769Z,13.57
2018-12-05T20:26:54.119Z,13.70
2018-12-05T20:31:01.798Z,14.70
2018-12-05T20:35:19.369Z,13.90
2018-12-05T20:39:28.440Z,11.80
2018-12-05T20:43:42.312Z,12.83
2018-12-05T20:47:59.186Z,13.37
2018-12-05T20:52:10.083Z,13.30
2018-12-05T20:56:27.146Z,12.85
2018-12-05T21:00:38.091Z,13.57
2018-12-05T21:04:51.013Z,12.97
2018-12-05T21:09:06.375Z,13.07
2018-12-05T21:13:20.232Z,12.30
2018-12-05T21:17:30.164Z,13.10
2018-12-05T21:21:46.283Z,13.63
2018-12-05T21:26:02.698Z,13.30
2018-12-05T21:30:15.697Z,12.63
2018-12-05T21:34:27.632Z,12.30
2018-12-05T21:38:41.381Z,13.57
2018-12-05T21:42:53.149Z,13.13
2018-12-05T21:47:05.905Z,13.67
2018-12-05T21:51:15.028Z,13.50
2018-12-05T21:55:26.449Z,13.32
2018-12-05T21:59:45.422Z,13.20
2018-12-05T22:03:55.663Z,13.17
2018-12-05T22:08:12.009Z,12.37
2018-12-05T22:12:23.783Z,12.37
2018-12-05T22:16:34.994Z,14.13
2018-12-05T22:21:44.102Z,13.70
2018-12-05T22:25:50.319Z,13.53
2018-12-05T22:30:00.275Z,14.90
2018-12-05T22:34:12.953Z,13.27
2018-12-05T22:38:26.417Z,13.33
2018-12-05T22:42:35.334Z,13.47
2018-12-05T22:46:47.909Z,13.10
2018-12-05T22:51:03.301Z,12.10
2018-12-05T22:55:15.378Z,12.00
2018-12-05T22:59:35.694Z,12.63
2018-12-05T23:03:47.819Z,12.53
2018-12-05T23:08:00.357Z,14.77
2018-12-05T23:12:15.794Z,12.23
2018-12-05T23:16:31.112Z,12.47
2018-12-05T23:20:44.609Z,13.73
2018-12-05T23:24:56.970Z,13.77
2018-12-05T23:29:02.787Z,12.30
2018-12-05T23:33:12.137Z,12.00
2018-12-05T23:37:24.763Z,13.60
2018-12-05T23:41:38.536Z,13.03
2018-12-05T23:45:56.806Z,13.30
2018-12-05T23:50:07.619Z,13.77
2018-12-05T23:54:17.611Z,13.70
2018-12-05T23:58:32.012Z,13.70
